sensor_id;sensor_type;location;lat;lon;timestamp;temperature;humidity
56538;DHT22;42435;53.292;6.000;2023-02-21T00:01:26;10.80;81.60
56538;DHT22;42435;53.292;6.000;2023-02-21T00:04:11;10.70;81.60
56538;DHT22;42435;53.292;6.000;2023-02-21T00:06:56;10.70;81.60
56538;DHT22;42435;53.292;6.000;2023-02-21T00:09:40;10.70;81.60
56538;DHT22;42435;53.292;6.000;2023-02-21T00:12:24;10.70;81.60
56538;DHT22;42435;53.292;6.000;2023-02-21T00:15:10;10.70;81.60
56538;DHT22;42435;53.292;6.000;2023-02-21T00:17:54;10.70;81.70
56538;DHT22;42435;53.292;6.000;2023-02-21T00:20:38;10.70;81.70
56538;DHT22;42435;53.292;6.000;2023-02-21T00:23:22;10.70;81.70
56538;DHT22;42435;53.292;6.000;2023-02-21T00:26:06;10.70;81.70
56538;DHT22;42435;53.292;6.000;2023-02-21T00:28:51;10.70;81.80
56538;DHT22;42435;53.292;6.000;2023-02-21T00:31:35;10.70;81.80
56538;DHT22;42435;53.292;6.000;2023-02-21T00:34:19;10.70;81.80
56538;DHT22;42435;53.292;6.000;2023-02-21T00:37:03;10.70;81.80
56538;DHT22;42435;53.292;6.000;2023-02-21T00:39:48;10.70;81.90
56538;DHT22;42435;53.292;6.000;2023-02-21T00:42:32;10.70;81.90
56538;DHT22;42435;53.292;6.000;2023-02-21T00:45:16;10.70;81.90
56538;DHT22;42435;53.292;6.000;2023-02-21T00:48:00;10.70;81.90
56538;DHT22;42435;53.292;6.000;2023-02-21T00:50:45;10.80;81.90
56538;DHT22;42435;53.292;6.000;2023-02-21T00:53:29;10.80;81.90
56538;DHT22;42435;53.292;6.000;2023-02-21T00:56:14;10.70;81.90
56538;DHT22;42435;53.292;6.000;2023-02-21T00:58:58;10.70;81.90
56538;DHT22;42435;53.292;6.000;2023-02-21T01:01:42;10.70;81.90
56538;DHT22;42435;53.292;6.000;2023-02-21T01:04:26;10.70;81.90
56538;DHT22;42435;53.292;6.000;2023-02-21T01:07:10;10.70;81.90
56538;DHT22;42435;53.292;6.000;2023-02-21T01:09:56;10.70;82.00
56538;DHT22;42435;53.292;6.000;2023-02-21T01:12:40;10.70;82.00
56538;DHT22;42435;53.292;6.000;2023-02-21T01:15:25;10.60;82.00
56538;DHT22;42435;53.292;6.000;2023-02-21T01:18:09;10.60;82.00
56538;DHT22;42435;53.292;6.000;2023-02-21T01:20:53;10.60;82.10
56538;DHT22;42435;53.292;6.000;2023-02-21T01:23:38;10.60;82.10
56538;DHT22;42435;53.292;6.000;2023-02-21T01:26:22;10.60;82.10
56538;DHT22;42435;53.292;6.000;2023-02-21T01:29:06;10.60;82.10
56538;DHT22;42435;53.292;6.000;2023-02-21T01:31:50;10.60;82.10
56538;DHT22;42435;53.292;6.000;2023-02-21T01:34:35;10.60;82.00
56538;DHT22;42435;53.292;6.000;2023-02-21T01:37:19;10.60;82.00
56538;DHT22;42435;53.292;6.000;2023-02-21T01:40:03;10.60;82.10
56538;DHT22;42435;53.292;6.000;2023-02-21T01:42:48;10.60;82.10
56538;DHT22;42435;53.292;6.000;2023-02-21T01:45:43;10.60;82.10
56538;DHT22;42435;53.292;6.000;2023-02-21T01:48:29;10.60;82.10
56538;DHT22;42435;53.292;6.000;2023-02-21T01:51:17;10.60;82.10
56538;DHT22;42435;53.292;6.000;2023-02-21T01:54:03;10.60;82.10
56538;DHT22;42435;53.292;6.000;2023-02-21T01:56:48;10.50;82.20
56538;DHT22;42435;53.292;6.000;2023-02-21T01:59:32;10.60;82.20
56538;DHT22;42435;53.292;6.000;2023-02-21T02:05:08;10.50;82.20
56538;DHT22;42435;53.292;6.000;2023-02-21T02:07:54;10.50;82.20
56538;DHT22;42435;53.292;6.000;2023-02-21T02:10:38;10.50;82.30
56538;DHT22;42435;53.292;6.000;2023-02-21T02:16:00;10.40;82.40
56538;DHT22;42435;53.292;6.000;2023-02-21T02:26:47;10.40;82.60
56538;DHT22;42435;53.292;6.000;2023-02-21T02:35:29;10.40;82.50
56538;DHT22;42435;53.292;6.000;2023-02-21T02:37:58;10.40;82.50
56538;DHT22;42435;53.292;6.000;2023-02-21T02:40:45;10.40;82.50
56538;DHT22;42435;53.292;6.000;2023-02-21T02:43:21;10.40;82.60
56538;DHT22;42435;53.292;6.000;2023-02-21T02:46:14;10.40;82.60
56538;DHT22;42435;53.292;6.000;2023-02-21T02:49:00;10.40;82.60
56538;DHT22;42435;53.292;6.000;2023-02-21T02:51:27;10.40;82.50
56538;DHT22;42435;53.292;6.000;2023-02-21T02:53:53;10.40;82.50
56538;DHT22;42435;53.292;6.000;2023-02-21T02:56:19;10.40;82.50
56538;DHT22;42435;53.292;6.000;2023-02-21T02:59:07;10.40;82.60
56538;DHT22;42435;53.292;6.000;2023-02-21T03:07:34;10.40;82.70
56538;DHT22;42435;53.292;6.000;2023-02-21T03:13:11;10.30;82.70
56538;DHT22;42435;53.292;6.000;2023-02-21T03:15:47;10.30;82.80
56538;DHT22;42435;53.292;6.000;2023-02-21T03:18:42;10.30;82.70
56538;DHT22;42435;53.292;6.000;2023-02-21T03:21:13;10.30;82.80
56538;DHT22;42435;53.292;6.000;2023-02-21T03:23:42;10.30;82.80
56538;DHT22;42435;53.292;6.000;2023-02-21T03:26:11;10.20;82.80
56538;DHT22;42435;53.292;6.000;2023-02-21T03:28:38;10.20;82.90
56538;DHT22;42435;53.292;6.000;2023-02-21T03:31:06;10.30;82.80
56538;DHT22;42435;53.292;6.000;2023-02-21T03:33:33;10.30;82.90
56538;DHT22;42435;53.292;6.000;2023-02-21T03:36:03;10.30;82.90
56538;DHT22;42435;53.292;6.000;2023-02-21T03:38:30;10.30;82.90
56538;DHT22;42435;53.292;6.000;2023-02-21T03:40:56;10.30;82.90
56538;DHT22;42435;53.292;6.000;2023-02-21T03:43:22;10.30;82.90
56538;DHT22;42435;53.292;6.000;2023-02-21T03:45:47;10.40;82.90
56538;DHT22;42435;53.292;6.000;2023-02-21T03:48:13;10.30;82.90
56538;DHT22;42435;53.292;6.000;2023-02-21T03:50:38;10.30;82.90
56538;DHT22;42435;53.292;6.000;2023-02-21T03:53:04;10.30;82.90
56538;DHT22;42435;53.292;6.000;2023-02-21T03:55:30;10.30;82.90
56538;DHT22;42435;53.292;6.000;2023-02-21T03:57:56;10.30;82.90
56538;DHT22;42435;53.292;6.000;2023-02-21T04:00:21;10.30;83.00
56538;DHT22;42435;53.292;6.000;2023-02-21T04:02:47;10.30;83.00
56538;DHT22;42435;53.292;6.000;2023-02-21T04:05:13;10.30;83.00
56538;DHT22;42435;53.292;6.000;2023-02-21T04:07:38;10.30;83.00
56538;DHT22;42435;53.292;6.000;2023-02-21T04:10:04;10.30;83.10
56538;DHT22;42435;53.292;6.000;2023-02-21T04:12:30;10.20;83.10
56538;DHT22;42435;53.292;6.000;2023-02-21T04:14:56;10.20;83.10
56538;DHT22;42435;53.292;6.000;2023-02-21T04:17:23;10.20;83.10
56538;DHT22;42435;53.292;6.000;2023-02-21T04:19:49;10.20;83.10
56538;DHT22;42435;53.292;6.000;2023-02-21T04:22:15;10.20;83.10
56538;DHT22;42435;53.292;6.000;2023-02-21T04:24:40;10.20;83.20
56538;DHT22;42435;53.292;6.000;2023-02-21T04:27:07;10.20;83.20
56538;DHT22;42435;53.292;6.000;2023-02-21T04:29:32;10.20;83.20
56538;DHT22;42435;53.292;6.000;2023-02-21T04:31:58;10.20;83.20
56538;DHT22;42435;53.292;6.000;2023-02-21T04:34:23;10.20;83.20
56538;DHT22;42435;53.292;6.000;2023-02-21T04:36:49;10.20;83.30
56538;DHT22;42435;53.292;6.000;2023-02-21T04:39:15;10.10;83.30
56538;DHT22;42435;53.292;6.000;2023-02-21T04:41:40;10.10;83.30
56538;DHT22;42435;53.292;6.000;2023-02-21T04:44:06;10.20;83.40
56538;DHT22;42435;53.292;6.000;2023-02-21T04:46:31;10.10;83.40
56538;DHT22;42435;53.292;6.000;2023-02-21T04:48:57;10.10;83.40
56538;DHT22;42435;53.292;6.000;2023-02-21T04:51:24;10.20;83.40
56538;DHT22;42435;53.292;6.000;2023-02-21T04:53:50;10.10;83.40
56538;DHT22;42435;53.292;6.000;2023-02-21T04:56:18;10.10;83.40
56538;DHT22;42435;53.292;6.000;2023-02-21T04:58:45;10.10;83.50
56538;DHT22;42435;53.292;6.000;2023-02-21T05:01:11;10.00;83.40
56538;DHT22;42435;53.292;6.000;2023-02-21T05:03:37;10.00;83.50
56538;DHT22;42435;53.292;6.000;2023-02-21T05:06:03;10.00;83.50
56538;DHT22;42435;53.292;6.000;2023-02-21T05:08:28;10.00;83.60
56538;DHT22;42435;53.292;6.000;2023-02-21T05:10:54;10.00;83.60
56538;DHT22;42435;53.292;6.000;2023-02-21T05:13:20;10.00;83.60
56538;DHT22;42435;53.292;6.000;2023-02-21T05:15:47;10.00;83.70
56538;DHT22;42435;53.292;6.000;2023-02-21T05:18:12;10.00;83.70
56538;DHT22;42435;53.292;6.000;2023-02-21T05:20:38;10.00;83.70
56538;DHT22;42435;53.292;6.000;2023-02-21T05:23:03;10.00;83.70
56538;DHT22;42435;53.292;6.000;2023-02-21T05:25:29;10.00;83.70
56538;DHT22;42435;53.292;6.000;2023-02-21T05:27:56;10.00;83.70
56538;DHT22;42435;53.292;6.000;2023-02-21T05:30:22;10.00;83.70
56538;DHT22;42435;53.292;6.000;2023-02-21T05:32:49;10.00;83.70
56538;DHT22;42435;53.292;6.000;2023-02-21T05:35:15;10.00;83.80
56538;DHT22;42435;53.292;6.000;2023-02-21T05:37:41;10.00;83.80
56538;DHT22;42435;53.292;6.000;2023-02-21T05:40:09;10.00;83.80
56538;DHT22;42435;53.292;6.000;2023-02-21T05:42:36;10.00;83.80
56538;DHT22;42435;53.292;6.000;2023-02-21T05:45:01;10.00;83.70
56538;DHT22;42435;53.292;6.000;2023-02-21T05:47:32;10.00;83.70
56538;DHT22;42435;53.292;6.000;2023-02-21T05:49:59;10.00;83.80
56538;DHT22;42435;53.292;6.000;2023-02-21T05:52:24;10.00;83.70
56538;DHT22;42435;53.292;6.000;2023-02-21T05:54:50;10.00;83.70
56538;DHT22;42435;53.292;6.000;2023-02-21T05:57:15;10.00;83.70
56538;DHT22;42435;53.292;6.000;2023-02-21T05:59:41;10.00;83.70
56538;DHT22;42435;53.292;6.000;2023-02-21T06:02:07;10.00;83.70
56538;DHT22;42435;53.292;6.000;2023-02-21T06:04:36;10.00;83.70
56538;DHT22;42435;53.292;6.000;2023-02-21T06:07:01;10.00;83.70
56538;DHT22;42435;53.292;6.000;2023-02-21T06:09:27;10.00;83.80
56538;DHT22;42435;53.292;6.000;2023-02-21T06:11:55;9.90;83.80
56538;DHT22;42435;53.292;6.000;2023-02-21T06:14:21;9.90;83.90
56538;DHT22;42435;53.292;6.000;2023-02-21T06:16:47;9.90;83.90
56538;DHT22;42435;53.292;6.000;2023-02-21T06:19:14;9.90;83.90
56538;DHT22;42435;53.292;6.000;2023-02-21T06:21:41;9.90;83.90
56538;DHT22;42435;53.292;6.000;2023-02-21T06:24:07;9.90;83.90
56538;DHT22;42435;53.292;6.000;2023-02-21T06:26:33;9.90;83.90
56538;DHT22;42435;53.292;6.000;2023-02-21T06:28:59;9.90;83.90
56538;DHT22;42435;53.292;6.000;2023-02-21T06:31:25;9.90;83.90
56538;DHT22;42435;53.292;6.000;2023-02-21T06:33:50;9.90;84.00
56538;DHT22;42435;53.292;6.000;2023-02-21T06:36:19;9.90;84.00
56538;DHT22;42435;53.292;6.000;2023-02-21T06:38:49;9.90;84.00
56538;DHT22;42435;53.292;6.000;2023-02-21T06:41:18;9.90;84.00
56538;DHT22;42435;53.292;6.000;2023-02-21T06:43:44;9.90;84.00
56538;DHT22;42435;53.292;6.000;2023-02-21T06:46:14;9.90;84.10
56538;DHT22;42435;53.292;6.000;2023-02-21T06:48:39;9.90;84.00
56538;DHT22;42435;53.292;6.000;2023-02-21T06:51:06;9.90;84.00
56538;DHT22;42435;53.292;6.000;2023-02-21T06:53:38;9.90;84.00
56538;DHT22;42435;53.292;6.000;2023-02-21T06:56:04;9.90;84.00
56538;DHT22;42435;53.292;6.000;2023-02-21T06:58:29;9.90;84.00
56538;DHT22;42435;53.292;6.000;2023-02-21T07:00:56;9.90;84.00
56538;DHT22;42435;53.292;6.000;2023-02-21T07:03:22;9.90;84.10
56538;DHT22;42435;53.292;6.000;2023-02-21T07:05:47;9.90;84.10
56538;DHT22;42435;53.292;6.000;2023-02-21T07:08:13;9.90;84.10
56538;DHT22;42435;53.292;6.000;2023-02-21T07:10:38;9.90;84.00
56538;DHT22;42435;53.292;6.000;2023-02-21T07:13:04;9.90;84.10
56538;DHT22;42435;53.292;6.000;2023-02-21T07:15:29;9.90;84.10
56538;DHT22;42435;53.292;6.000;2023-02-21T07:17:56;9.90;84.10
56538;DHT22;42435;53.292;6.000;2023-02-21T07:20:21;9.90;84.10
56538;DHT22;42435;53.292;6.000;2023-02-21T07:22:47;9.90;84.10
56538;DHT22;42435;53.292;6.000;2023-02-21T07:25:14;10.00;84.10
56538;DHT22;42435;53.292;6.000;2023-02-21T07:27:40;10.00;84.10
56538;DHT22;42435;53.292;6.000;2023-02-21T07:30:06;10.00;84.10
56538;DHT22;42435;53.292;6.000;2023-02-21T07:32:32;10.00;84.10
56538;DHT22;42435;53.292;6.000;2023-02-21T07:34:57;10.00;84.10
56538;DHT22;42435;53.292;6.000;2023-02-21T07:37:23;10.00;84.10
56538;DHT22;42435;53.292;6.000;2023-02-21T07:39:48;10.00;84.10
56538;DHT22;42435;53.292;6.000;2023-02-21T07:42:14;10.10;84.10
56538;DHT22;42435;53.292;6.000;2023-02-21T07:44:39;10.10;84.10
56538;DHT22;42435;53.292;6.000;2023-02-21T07:47:05;10.10;84.00
56538;DHT22;42435;53.292;6.000;2023-02-21T07:49:30;10.10;84.00
56538;DHT22;42435;53.292;6.000;2023-02-21T07:51:56;10.20;84.00
56538;DHT22;42435;53.292;6.000;2023-02-21T07:54:21;10.10;83.90
56538;DHT22;42435;53.292;6.000;2023-02-21T07:56:48;10.10;84.00
56538;DHT22;42435;53.292;6.000;2023-02-21T07:59:14;10.20;84.00
56538;DHT22;42435;53.292;6.000;2023-02-21T08:01:41;10.20;84.00
56538;DHT22;42435;53.292;6.000;2023-02-21T08:04:06;10.20;83.90
56538;DHT22;42435;53.292;6.000;2023-02-21T08:06:35;10.30;83.80
56538;DHT22;42435;53.292;6.000;2023-02-21T08:09:01;10.30;83.80
56538;DHT22;42435;53.292;6.000;2023-02-21T08:11:27;10.30;83.80
56538;DHT22;42435;53.292;6.000;2023-02-21T08:13:52;10.30;83.80
56538;DHT22;42435;53.292;6.000;2023-02-21T08:16:18;10.30;83.70
56538;DHT22;42435;53.292;6.000;2023-02-21T08:18:46;10.40;83.70
56538;DHT22;42435;53.292;6.000;2023-02-21T08:21:12;10.40;83.60
56538;DHT22;42435;53.292;6.000;2023-02-21T08:23:37;10.40;83.60
56538;DHT22;42435;53.292;6.000;2023-02-21T08:26:04;10.40;83.60
56538;DHT22;42435;53.292;6.000;2023-02-21T08:28:30;10.50;83.60
56538;DHT22;42435;53.292;6.000;2023-02-21T08:30:56;10.50;83.50
56538;DHT22;42435;53.292;6.000;2023-02-21T08:33:22;10.60;83.40
56538;DHT22;42435;53.292;6.000;2023-02-21T08:35:48;10.60;83.40
56538;DHT22;42435;53.292;6.000;2023-02-21T08:38:13;10.60;83.30
56538;DHT22;42435;53.292;6.000;2023-02-21T08:40:39;10.70;83.20
56538;DHT22;42435;53.292;6.000;2023-02-21T08:43:05;10.70;83.20
56538;DHT22;42435;53.292;6.000;2023-02-21T08:45:31;10.80;83.20
56538;DHT22;42435;53.292;6.000;2023-02-21T08:47:58;10.80;83.10
56538;DHT22;42435;53.292;6.000;2023-02-21T08:50:25;10.90;83.00
56538;DHT22;42435;53.292;6.000;2023-02-21T08:52:51;10.90;82.90
56538;DHT22;42435;53.292;6.000;2023-02-21T08:55:18;11.00;82.80
56538;DHT22;42435;53.292;6.000;2023-02-21T08:57:48;11.00;82.60
56538;DHT22;42435;53.292;6.000;2023-02-21T09:00:15;11.10;82.40
56538;DHT22;42435;53.292;6.000;2023-02-21T09:02:41;11.10;82.30
56538;DHT22;42435;53.292;6.000;2023-02-21T09:05:19;11.10;82.30
56538;DHT22;42435;53.292;6.000;2023-02-21T09:07:48;11.20;82.20
56538;DHT22;42435;53.292;6.000;2023-02-21T09:10:13;11.30;82.10
56538;DHT22;42435;53.292;6.000;2023-02-21T09:12:39;11.40;82.00
56538;DHT22;42435;53.292;6.000;2023-02-21T09:15:06;11.40;81.80
56538;DHT22;42435;53.292;6.000;2023-02-21T09:17:32;11.40;81.60
56538;DHT22;42435;53.292;6.000;2023-02-21T09:20:05;11.50;81.50
56538;DHT22;42435;53.292;6.000;2023-02-21T09:22:32;11.60;81.30
56538;DHT22;42435;53.292;6.000;2023-02-21T09:24:59;11.60;81.20
56538;DHT22;42435;53.292;6.000;2023-02-21T09:27:25;11.60;80.90
56538;DHT22;42435;53.292;6.000;2023-02-21T09:30:07;11.60;80.80
56538;DHT22;42435;53.292;6.000;2023-02-21T09:32:34;11.70;80.80
56538;DHT22;42435;53.292;6.000;2023-02-21T09:35:02;11.70;80.60
56538;DHT22;42435;53.292;6.000;2023-02-21T09:37:30;11.70;80.60
56538;DHT22;42435;53.292;6.000;2023-02-21T09:39:58;11.80;80.40
56538;DHT22;42435;53.292;6.000;2023-02-21T09:42:29;11.70;80.30
56538;DHT22;42435;53.292;6.000;2023-02-21T09:44:59;11.80;80.30
56538;DHT22;42435;53.292;6.000;2023-02-21T09:47:36;11.90;80.30
56538;DHT22;42435;53.292;6.000;2023-02-21T09:50:06;11.90;80.10
56538;DHT22;42435;53.292;6.000;2023-02-21T09:52:37;11.90;80.00
56538;DHT22;42435;53.292;6.000;2023-02-21T09:55:13;12.00;79.90
56538;DHT22;42435;53.292;6.000;2023-02-21T09:57:40;12.00;79.80
56538;DHT22;42435;53.292;6.000;2023-02-21T10:00:15;12.10;79.70
56538;DHT22;42435;53.292;6.000;2023-02-21T10:02:59;12.20;79.40
56538;DHT22;42435;53.292;6.000;2023-02-21T10:08:32;12.30;78.90
56538;DHT22;42435;53.292;6.000;2023-02-21T10:16:59;12.40;78.70
56538;DHT22;42435;53.292;6.000;2023-02-21T10:19:36;12.40;78.80
56538;DHT22;42435;53.292;6.000;2023-02-21T10:22:15;12.50;78.70
56538;DHT22;42435;53.292;6.000;2023-02-21T10:24:44;12.60;78.50
56538;DHT22;42435;53.292;6.000;2023-02-21T10:27:17;12.70;78.40
56538;DHT22;42435;53.292;6.000;2023-02-21T10:30:10;12.70;77.90
56538;DHT22;42435;53.292;6.000;2023-02-21T10:32:39;12.70;77.60
56538;DHT22;42435;53.292;6.000;2023-02-21T10:35:05;12.70;77.70
56538;DHT22;42435;53.292;6.000;2023-02-21T10:42:39;12.60;77.80
56538;DHT22;42435;53.292;6.000;2023-02-21T10:45:08;12.70;77.70
56538;DHT22;42435;53.292;6.000;2023-02-21T10:50:09;12.70;77.70
56538;DHT22;42435;53.292;6.000;2023-02-21T10:52:56;12.80;77.60
56538;DHT22;42435;53.292;6.000;2023-02-21T10:55:22;12.80;77.30
56538;DHT22;42435;53.292;6.000;2023-02-21T10:57:54;12.90;77.30
56538;DHT22;42435;53.292;6.000;2023-02-21T11:00:29;12.90;77.00
56538;DHT22;42435;53.292;6.000;2023-02-21T11:03:02;13.00;77.00
56538;DHT22;42435;53.292;6.000;2023-02-21T11:05:28;13.10;77.00
56538;DHT22;42435;53.292;6.000;2023-02-21T11:07:57;13.20;76.80
56538;DHT22;42435;53.292;6.000;2023-02-21T11:10:27;13.20;76.40
56538;DHT22;42435;53.292;6.000;2023-02-21T11:13:21;13.30;76.10
56538;DHT22;42435;53.292;6.000;2023-02-21T11:15:47;13.30;75.90
56538;DHT22;42435;53.292;6.000;2023-02-21T11:18:21;13.20;75.90
56538;DHT22;42435;53.292;6.000;2023-02-21T11:20:47;13.20;75.90
56538;DHT22;42435;53.292;6.000;2023-02-21T11:23:23;13.20;76.00
56538;DHT22;42435;53.292;6.000;2023-02-21T11:25:57;13.20;76.00
56538;DHT22;42435;53.292;6.000;2023-02-21T11:28:24;13.30;76.00
56538;DHT22;42435;53.292;6.000;2023-02-21T11:31:20;13.30;76.00
56538;DHT22;42435;53.292;6.000;2023-02-21T11:33:58;13.30;75.90
56538;DHT22;42435;53.292;6.000;2023-02-21T11:39:12;13.30;75.80
56538;DHT22;42435;53.292;6.000;2023-02-21T11:42:01;13.30;76.00
56538;DHT22;42435;53.292;6.000;2023-02-21T11:44:36;13.40;75.70
56538;DHT22;42435;53.292;6.000;2023-02-21T11:52:36;13.50;75.30
56538;DHT22;42435;53.292;6.000;2023-02-21T11:55:12;13.50;75.00
56538;DHT22;42435;53.292;6.000;2023-02-21T11:57:51;13.50;75.10
56538;DHT22;42435;53.292;6.000;2023-02-21T12:00:42;13.50;75.20
56538;DHT22;42435;53.292;6.000;2023-02-21T12:03:17;13.50;75.10
56538;DHT22;42435;53.292;6.000;2023-02-21T12:06:02;13.50;75.10
56538;DHT22;42435;53.292;6.000;2023-02-21T12:08:54;13.50;75.20
56538;DHT22;42435;53.292;6.000;2023-02-21T12:11:36;13.60;75.10
56538;DHT22;42435;53.292;6.000;2023-02-21T12:28:17;13.40;74.90
56538;DHT22;42435;53.292;6.000;2023-02-21T12:31:12;13.40;75.00
56538;DHT22;42435;53.292;6.000;2023-02-21T12:33:46;13.40;75.10
56538;DHT22;42435;53.292;6.000;2023-02-21T12:44:25;13.30;75.20
56538;DHT22;42435;53.292;6.000;2023-02-21T12:47:04;13.30;75.10
56538;DHT22;42435;53.292;6.000;2023-02-21T12:52:25;13.20;75.10
56538;DHT22;42435;53.292;6.000;2023-02-21T12:55:06;13.20;75.10
56538;DHT22;42435;53.292;6.000;2023-02-21T13:00:50;13.00;75.10
56538;DHT22;42435;53.292;6.000;2023-02-21T13:11:55;12.90;75.60
56538;DHT22;42435;53.292;6.000;2023-02-21T13:14:32;12.90;75.70
56538;DHT22;42435;53.292;6.000;2023-02-21T13:16:59;12.80;75.80
56538;DHT22;42435;53.292;6.000;2023-02-21T13:19:31;12.90;75.80
56538;DHT22;42435;53.292;6.000;2023-02-21T13:22:10;12.80;75.80
56538;DHT22;42435;53.292;6.000;2023-02-21T13:25:23;12.80;75.70
56538;DHT22;42435;53.292;6.000;2023-02-21T13:28:12;12.70;75.80
56538;DHT22;42435;53.292;6.000;2023-02-21T13:31:00;12.70;76.00
56538;DHT22;42435;53.292;6.000;2023-02-21T13:35:57;12.60;76.20
56538;DHT22;42435;53.292;6.000;2023-02-21T13:38:26;12.60;76.30
56538;DHT22;42435;53.292;6.000;2023-02-21T13:41:02;12.60;76.40
56538;DHT22;42435;53.292;6.000;2023-02-21T13:43:31;12.60;76.30
56538;DHT22;42435;53.292;6.000;2023-02-21T13:51:52;12.50;76.40
56538;DHT22;42435;53.292;6.000;2023-02-21T13:54:22;12.40;76.50
56538;DHT22;42435;53.292;6.000;2023-02-21T13:56:49;12.40;76.70
56538;DHT22;42435;53.292;6.000;2023-02-21T14:01:49;12.40;77.00
56538;DHT22;42435;53.292;6.000;2023-02-21T14:07:46;12.40;77.40
56538;DHT22;42435;53.292;6.000;2023-02-21T14:10:22;12.40;77.40
56538;DHT22;42435;53.292;6.000;2023-02-21T14:12:57;12.40;77.20
56538;DHT22;42435;53.292;6.000;2023-02-21T14:15:39;12.30;77.30
56538;DHT22;42435;53.292;6.000;2023-02-21T14:18:12;12.30;77.50
56538;DHT22;42435;53.292;6.000;2023-02-21T14:20:38;12.20;77.60
56538;DHT22;42435;53.292;6.000;2023-02-21T14:23:05;12.20;77.80
56538;DHT22;42435;53.292;6.000;2023-02-21T14:25:32;12.10;78.10
56538;DHT22;42435;53.292;6.000;2023-02-21T14:27:58;12.10;78.30
56538;DHT22;42435;53.292;6.000;2023-02-21T14:30:32;12.10;78.40
56538;DHT22;42435;53.292;6.000;2023-02-21T14:33:20;12.00;78.60
56538;DHT22;42435;53.292;6.000;2023-02-21T14:35:55;12.00;78.90
56538;DHT22;42435;53.292;6.000;2023-02-21T14:38:22;11.90;79.00
56538;DHT22;42435;53.292;6.000;2023-02-21T14:41:00;11.90;78.90
56538;DHT22;42435;53.292;6.000;2023-02-21T14:43:53;11.90;79.10
56538;DHT22;42435;53.292;6.000;2023-02-21T14:46:38;11.90;79.40
56538;DHT22;42435;53.292;6.000;2023-02-21T14:51:53;11.80;79.80
56538;DHT22;42435;53.292;6.000;2023-02-21T15:10:46;11.60;80.20
56538;DHT22;42435;53.292;6.000;2023-02-21T15:13:26;11.60;80.30
56538;DHT22;42435;53.292;6.000;2023-02-21T15:15:57;11.50;80.50
56538;DHT22;42435;53.292;6.000;2023-02-21T15:18:29;11.50;80.60
56538;DHT22;42435;53.292;6.000;2023-02-21T15:24:19;11.50;80.80
56538;DHT22;42435;53.292;6.000;2023-02-21T15:26:27;11.50;80.70
56538;DHT22;42435;53.292;6.000;2023-02-21T15:29:08;11.40;80.70
56538;DHT22;42435;53.292;6.000;2023-02-21T15:31:35;11.40;80.70
56538;DHT22;42435;53.292;6.000;2023-02-21T15:34:03;11.40;80.70
56538;DHT22;42435;53.292;6.000;2023-02-21T15:36:29;11.40;80.70
56538;DHT22;42435;53.292;6.000;2023-02-21T15:41:51;11.30;80.90
56538;DHT22;42435;53.292;6.000;2023-02-21T15:44:25;11.30;81.00
56538;DHT22;42435;53.292;6.000;2023-02-21T15:47:12;11.20;81.00
56538;DHT22;42435;53.292;6.000;2023-02-21T15:50:00;11.20;81.00
56538;DHT22;42435;53.292;6.000;2023-02-21T15:52:42;11.20;81.10
56538;DHT22;42435;53.292;6.000;2023-02-21T15:58:02;11.20;81.20
56538;DHT22;42435;53.292;6.000;2023-02-21T16:00:29;11.10;81.20
56538;DHT22;42435;53.292;6.000;2023-02-21T16:03:30;11.10;81.20
56538;DHT22;42435;53.292;6.000;2023-02-21T16:09:03;11.00;81.40
56538;DHT22;42435;53.292;6.000;2023-02-21T16:11:53;11.00;81.60
56538;DHT22;42435;53.292;6.000;2023-02-21T16:16:49;10.90;81.60
56538;DHT22;42435;53.292;6.000;2023-02-21T16:19:20;10.90;81.70
56538;DHT22;42435;53.292;6.000;2023-02-21T16:21:46;10.90;81.70
56538;DHT22;42435;53.292;6.000;2023-02-21T16:24:30;10.90;81.70
56538;DHT22;42435;53.292;6.000;2023-02-21T16:27:05;10.80;81.90
56538;DHT22;42435;53.292;6.000;2023-02-21T16:29:32;10.80;81.80
56538;DHT22;42435;53.292;6.000;2023-02-21T16:31:58;10.80;81.90
56538;DHT22;42435;53.292;6.000;2023-02-21T16:34:24;10.80;81.90
56538;DHT22;42435;53.292;6.000;2023-02-21T16:36:50;10.80;82.00
56538;DHT22;42435;53.292;6.000;2023-02-21T16:39:19;10.70;82.00
56538;DHT22;42435;53.292;6.000;2023-02-21T16:41:45;10.70;82.00
56538;DHT22;42435;53.292;6.000;2023-02-21T16:44:10;10.70;82.10
56538;DHT22;42435;53.292;6.000;2023-02-21T16:46:36;10.70;82.20
56538;DHT22;42435;53.292;6.000;2023-02-21T16:49:01;10.70;82.30
56538;DHT22;42435;53.292;6.000;2023-02-21T16:51:27;10.60;82.40
56538;DHT22;42435;53.292;6.000;2023-02-21T16:53:57;10.60;82.40
56538;DHT22;42435;53.292;6.000;2023-02-21T16:56:23;10.60;82.50
56538;DHT22;42435;53.292;6.000;2023-02-21T16:58:50;10.60;82.60
56538;DHT22;42435;53.292;6.000;2023-02-21T17:01:29;10.60;82.70
56538;DHT22;42435;53.292;6.000;2023-02-21T17:03:54;10.60;82.80
56538;DHT22;42435;53.292;6.000;2023-02-21T17:06:23;10.60;82.70
56538;DHT22;42435;53.292;6.000;2023-02-21T17:08:50;10.50;82.80
56538;DHT22;42435;53.292;6.000;2023-02-21T17:11:16;10.50;82.80
56538;DHT22;42435;53.292;6.000;2023-02-21T17:13:41;10.50;82.90
56538;DHT22;42435;53.292;6.000;2023-02-21T17:16:07;10.50;82.90
56538;DHT22;42435;53.292;6.000;2023-02-21T17:18:33;10.50;82.90
56538;DHT22;42435;53.292;6.000;2023-02-21T17:20:59;10.50;82.90
56538;DHT22;42435;53.292;6.000;2023-02-21T17:23:25;10.50;82.90
56538;DHT22;42435;53.292;6.000;2023-02-21T17:25:51;10.50;83.00
56538;DHT22;42435;53.292;6.000;2023-02-21T17:28:17;10.50;83.10
56538;DHT22;42435;53.292;6.000;2023-02-21T17:30:44;10.50;83.10
56538;DHT22;42435;53.292;6.000;2023-02-21T17:33:13;10.50;83.10
56538;DHT22;42435;53.292;6.000;2023-02-21T17:35:39;10.60;83.10
56538;DHT22;42435;53.292;6.000;2023-02-21T17:38:05;10.50;83.10
56538;DHT22;42435;53.292;6.000;2023-02-21T17:40:31;10.50;83.20
56538;DHT22;42435;53.292;6.000;2023-02-21T17:42:57;10.50;83.20
56538;DHT22;42435;53.292;6.000;2023-02-21T17:45:23;10.50;83.20
56538;DHT22;42435;53.292;6.000;2023-02-21T17:47:50;10.60;83.20
56538;DHT22;42435;53.292;6.000;2023-02-21T17:50:17;10.50;83.30
56538;DHT22;42435;53.292;6.000;2023-02-21T17:52:43;10.50;83.20
56538;DHT22;42435;53.292;6.000;2023-02-21T17:55:15;10.50;83.20
56538;DHT22;42435;53.292;6.000;2023-02-21T17:57:41;10.50;83.20
56538;DHT22;42435;53.292;6.000;2023-02-21T18:00:10;10.50;83.20
56538;DHT22;42435;53.292;6.000;2023-02-21T18:02:39;10.50;83.20
56538;DHT22;42435;53.292;6.000;2023-02-21T18:05:05;10.50;83.20
56538;DHT22;42435;53.292;6.000;2023-02-21T18:07:33;10.50;83.20
56538;DHT22;42435;53.292;6.000;2023-02-21T18:10:00;10.50;83.30
56538;DHT22;42435;53.292;6.000;2023-02-21T18:12:28;10.50;83.20
56538;DHT22;42435;53.292;6.000;2023-02-21T18:14:53;10.50;83.20
56538;DHT22;42435;53.292;6.000;2023-02-21T18:17:19;10.50;83.10
56538;DHT22;42435;53.292;6.000;2023-02-21T18:19:44;10.50;83.10